createdAt,value
2022-11-21T00:01:29.217Z,98367.50
2022-11-21T00:03:56.645Z,98362.19
2022-11-21T00:06:24.099Z,98339.97
2022-11-21T00:08:51.820Z,98339.78
2022-11-21T00:11:22.124Z,98338.19
2022-11-21T00:13:49.653Z,98336.75
2022-11-21T00:16:17.188Z,98333.75
2022-11-21T00:18:45.372Z,98329.56
2022-11-21T00:21:18.402Z,98342.16
2022-11-21T00:23:47.415Z,98336.47
2022-11-21T00:26:16.534Z,98322.53
2022-11-21T00:28:44.828Z,98317.25
2022-11-21T00:31:23.466Z,98284.81
2022-11-21T00:33:50.959Z,98275.78
2022-11-21T00:36:18.590Z,98275.72
2022-11-21T00:38:46.041Z,98255.75
2022-11-21T00:41:13.561Z,98253.16
2022-11-21T00:43:41.074Z,98250.81
2022-11-21T00:46:08.538Z,98259.44
2022-11-21T00:48:35.970Z,98245.41
2022-11-21T00:51:03.605Z,98252.59
2022-11-21T00:53:31.538Z,98253.69
2022-11-21T00:55:59.450Z,98265.75
2022-11-21T00:58:27.805Z,98262.13
2022-11-21T01:01:11.260Z,98262.56
2022-11-21T01:03:39.242Z,98267.63
2022-11-21T01:06:15.021Z,98282.59
2022-11-21T01:08:44.649Z,98300.53
2022-11-21T01:11:23.316Z,98315.50
2022-11-21T01:13:52.835Z,98322.47
2022-11-21T01:16:24.152Z,98320.31
2022-11-21T01:18:52.279Z,98319.31
2022-11-21T01:21:22.388Z,98301.91
2022-11-21T01:23:50.936Z,98314.69
2022-11-21T01:26:24.776Z,98366.25
2022-11-21T01:28:53.190Z,98383.09
2022-11-21T01:31:27.427Z,98372.47
2022-11-21T01:33:56.964Z,98403.09
2022-11-21T01:36:33.555Z,98395.75
2022-11-21T01:39:04.502Z,98384.59
2022-11-21T01:41:36.128Z,98415.69
2022-11-21T01:44:16.983Z,98397.97
2022-11-21T01:46:44.690Z,98349.88
2022-11-21T01:49:22.346Z,98275.66
2022-11-21T01:52:17.633Z,98303.56
2022-11-21T01:55:08.090Z,98288.44
2022-11-21T01:57:39.538Z,98313.34
2022-11-21T02:00:23.355Z,98298.34
2022-11-21T02:02:58.555Z,98294.50
2022-11-21T02:05:30.874Z,98280.84
2022-11-21T02:08:03.963Z,98254.84
2022-11-21T02:10:31.574Z,98255.56
2022-11-21T02:12:59.843Z,98268.41
2022-11-21T02:15:29.638Z,98274.81
2022-11-21T02:17:57.460Z,98278.69
2022-11-21T02:20:28.519Z,98293.59
2022-11-21T02:23:26.003Z,98270.78
2022-11-21T02:25:54.244Z,98276.72
2022-11-21T02:28:23.684Z,98288.19
2022-11-21T02:30:51.850Z,98302.19
2022-11-21T02:33:19.365Z,98337.03
2022-11-21T02:36:00.963Z,98343.16
2022-11-21T02:38:38.323Z,98322.78
2022-11-21T02:41:26.752Z,98315.44
2022-11-21T02:44:08.484Z,98299.16
2022-11-21T02:46:36.914Z,98309.44
2022-11-21T02:49:08.701Z,98305.72
2022-11-21T02:51:36.160Z,98308.63
2022-11-21T02:54:04.707Z,98301.97
2022-11-21T02:56:32.121Z,98282.44
2022-11-21T02:58:59.799Z,98286.13
2022-11-21T03:01:27.241Z,98280.34
2022-11-21T03:03:54.813Z,98282.78
2022-11-21T03:06:22.377Z,98267.06
2022-11-21T03:08:49.811Z,98260.00
2022-11-21T03:11:17.230Z,98267.88
2022-11-21T03:13:44.637Z,98277.03
2022-11-21T03:16:12.046Z,98276.81
2022-11-21T03:18:39.454Z,98276.53
2022-11-21T03:21:06.924Z,98274.19
2022-11-21T03:23:34.389Z,98270.09
2022-11-21T03:26:01.841Z,98271.50
2022-11-21T03:28:29.382Z,98278.09
2022-11-21T03:30:56.851Z,98273.81
2022-11-21T03:33:24.289Z,98255.81
2022-11-21T03:35:51.766Z,98251.03
2022-11-21T03:38:19.318Z,98246.59
2022-11-21T03:40:46.832Z,98246.63
2022-11-21T03:43:14.212Z,98227.94
2022-11-21T03:45:41.733Z,98222.22
2022-11-21T03:48:09.235Z,98210.59
2022-11-21T03:50:36.709Z,98197.53
2022-11-21T03:53:04.229Z,98195.56
2022-11-21T03:55:31.628Z,98201.75
2022-11-21T03:57:59.148Z,98210.31
2022-11-21T04:00:26.654Z,98201.91
2022-11-21T04:02:54.546Z,98203.38
2022-11-21T04:05:21.957Z,98205.06
2022-11-21T04:07:49.404Z,98211.44
2022-11-21T04:10:16.967Z,98211.22
2022-11-21T04:12:44.378Z,98213.88
2022-11-21T04:15:13.909Z,98210.53
2022-11-21T04:17:41.742Z,98213.88
2022-11-21T04:20:10.199Z,98191.38
2022-11-21T04:22:37.683Z,98197.50
2022-11-21T04:25:06.022Z,98191.00
2022-11-21T04:27:33.624Z,98198.19
2022-11-21T04:30:01.106Z,98193.28
2022-11-21T04:32:28.903Z,98185.84
2022-11-21T04:34:56.353Z,98175.97
2022-11-21T04:37:23.878Z,98171.28
2022-11-21T04:39:51.418Z,98182.16
2022-11-21T04:42:18.891Z,98197.59
2022-11-21T04:44:47.441Z,98188.53
2022-11-21T04:47:14.823Z,98190.75
2022-11-21T04:49:42.340Z,98188.06
2022-11-21T04:52:09.817Z,98194.78
2022-11-21T04:54:38.515Z,98194.78
2022-11-21T04:57:06.060Z,98179.81
2022-11-21T04:59:33.554Z,98183.50
2022-11-21T05:02:04.007Z,98188.81
2022-11-21T05:04:31.540Z,98190.47
2022-11-21T05:06:59.065Z,98199.00
2022-11-21T05:09:26.645Z,98204.53
2022-11-21T05:12:12.719Z,98203.19
2022-11-21T05:14:40.220Z,98194.72
2022-11-21T05:17:07.849Z,98193.25
2022-11-21T05:19:35.282Z,98197.41
2022-11-21T05:22:02.893Z,98205.50
2022-11-21T05:24:30.645Z,98205.38
2022-11-21T05:26:59.755Z,98205.25
2022-11-21T05:29:28.358Z,98210.06
2022-11-21T05:31:56.087Z,98203.91
2022-11-21T05:34:23.618Z,98203.19
2022-11-21T05:36:58.241Z,98204.06
2022-11-21T05:39:26.527Z,98211.97
2022-11-21T05:41:58.510Z,98214.59
2022-11-21T05:44:30.795Z,98210.19
2022-11-21T05:46:58.487Z,98211.06
2022-11-21T05:49:26.027Z,98217.72
2022-11-21T05:51:53.480Z,98216.19
2022-11-21T05:54:20.956Z,98213.97
2022-11-21T05:56:49.417Z,98204.66
2022-11-21T05:59:16.928Z,98198.00
2022-11-21T06:02:02.926Z,98209.63
2022-11-21T06:04:30.644Z,98235.13
2022-11-21T06:06:58.262Z,98235.53
2022-11-21T06:09:25.775Z,98237.47
2022-11-21T06:11:53.913Z,98229.19
2022-11-21T06:14:21.433Z,98243.03
2022-11-21T06:16:48.858Z,98237.69
2022-11-21T06:19:16.341Z,98247.59
2022-11-21T06:21:43.783Z,98244.47
2022-11-21T06:24:12.269Z,98247.91
2022-11-21T06:26:39.750Z,98246.69
2022-11-21T06:29:10.304Z,98250.34
2022-11-21T06:31:38.148Z,98256.19
2022-11-21T06:34:05.538Z,98254.19
2022-11-21T06:36:33.056Z,98245.13
2022-11-21T06:39:00.608Z,98253.81
2022-11-21T06:41:30.933Z,98257.31
2022-11-21T06:44:01.957Z,98258.06
2022-11-21T06:46:29.695Z,98258.19
2022-11-21T06:48:57.234Z,98264.06
2022-11-21T06:51:26.166Z,98251.97
2022-11-21T06:53:58.346Z,98245.47
2022-11-21T06:56:31.195Z,98256.63
2022-11-21T06:58:59.440Z,98262.19
2022-11-21T07:01:30.243Z,98253.03
2022-11-21T07:03:57.820Z,98261.97
2022-11-21T07:06:25.644Z,98261.91
2022-11-21T07:11:45.322Z,98259.84
2022-11-21T07:14:13.781Z,98260.06
2022-11-21T07:16:42.630Z,98273.44
2022-11-21T07:19:10.187Z,98273.25
2022-11-21T07:21:37.747Z,98273.41
2022-11-21T07:24:06.082Z,98268.16
2022-11-21T07:26:33.576Z,98270.53
2022-11-21T07:29:01.101Z,98274.66
2022-11-21T07:31:28.591Z,98279.94
2022-11-21T07:33:56.171Z,98292.41
2022-11-21T07:36:23.609Z,98293.19
2022-11-21T07:38:51.092Z,98298.47
2022-11-21T07:41:18.592Z,98292.44
2022-11-21T07:43:46.219Z,98293.53
2022-11-21T07:46:13.788Z,98300.28
2022-11-21T07:48:44.143Z,98290.84
2022-11-21T07:51:11.742Z,98289.34
2022-11-21T07:53:39.235Z,98291.66
2022-11-21T07:56:11.955Z,98297.09
2022-11-21T07:58:39.584Z,98295.59
2022-11-21T08:01:08.234Z,98307.69
2022-11-21T08:03:35.972Z,98307.72
2022-11-21T08:06:05.139Z,98308.47
2022-11-21T08:08:32.656Z,98303.88
2022-11-21T08:11:05.543Z,98315.53
2022-11-21T08:13:33.403Z,98315.38
2022-11-21T08:16:04.138Z,98310.38
2022-11-21T08:18:32.115Z,98312.09
2022-11-21T08:21:04.294Z,98309.03
2022-11-21T08:23:32.799Z,98318.53
2022-11-21T08:26:00.362Z,98325.91
2022-11-21T08:28:27.975Z,98320.34
2022-11-21T08:30:55.498Z,98321.59
2022-11-21T08:33:23.038Z,98323.13
2022-11-21T08:35:50.499Z,98327.91
2022-11-21T08:38:18.003Z,98319.59
2022-11-21T08:40:45.971Z,98332.47
2022-11-21T08:43:13.556Z,98338.34
2022-11-21T08:45:42.233Z,98334.94
2022-11-21T08:48:12.953Z,98334.59
2022-11-21T08:50:40.725Z,98334.31
2022-11-21T08:53:08.198Z,98332.69
2022-11-21T08:55:35.662Z,98327.88
2022-11-21T08:58:03.204Z,98327.53
2022-11-21T09:00:32.190Z,98329.78
2022-11-21T09:02:59.770Z,98328.69
2022-11-21T09:05:27.718Z,98331.75
2022-11-21T09:07:59.566Z,98330.75
2022-11-21T09:10:27.683Z,98328.94
2022-11-21T09:12:59.706Z,98328.13
2022-11-21T09:15:46.009Z,98323.78
2022-11-21T09:18:13.653Z,98326.19
2022-11-21T09:20:47.607Z,98337.91
2022-11-21T09:23:16.937Z,98325.88
2022-11-21T09:25:45.481Z,98334.94
2022-11-21T09:28:14.530Z,98328.06
2022-11-21T09:30:43.373Z,98330.50
2022-11-21T09:33:14.120Z,98318.75
2022-11-21T09:35:41.728Z,98330.69
2022-11-21T09:38:09.989Z,98316.41
2022-11-21T09:40:45.200Z,98321.25
2022-11-21T09:43:30.575Z,98313.56
2022-11-21T09:46:11.615Z,98312.00
2022-11-21T09:49:06.293Z,98311.03
2022-11-21T09:51:38.365Z,98305.22
2022-11-21T09:54:32.540Z,98313.66
2022-11-21T09:57:00.992Z,98307.97
2022-11-21T09:59:40.089Z,98302.16
2022-11-21T10:02:18.960Z,98296.22
2022-11-21T10:04:47.959Z,98300.69
2022-11-21T10:07:19.562Z,98296.25
2022-11-21T10:10:29.987Z,98302.22
2022-11-21T10:13:43.435Z,98296.88
2022-11-21T10:16:26.696Z,98296.69
2022-11-21T10:19:59.905Z,98302.84
2022-11-21T10:23:08.587Z,98300.31
2022-11-21T10:25:40.466Z,98300.47
2022-11-21T10:28:36.626Z,98300.25
2022-11-21T10:31:10.248Z,98295.19
2022-11-21T10:33:40.490Z,98300.28
2022-11-21T10:36:39.300Z,98295.78
2022-11-21T10:39:24.326Z,98296.88
2022-11-21T10:42:24.274Z,98301.00
2022-11-21T10:45:11.775Z,98301.00
2022-11-21T10:47:39.225Z,98296.44
2022-11-21T10:50:39.162Z,98296.72
2022-11-21T10:53:34.819Z,98295.47
2022-11-21T10:56:24.218Z,98302.88
2022-11-21T10:59:02.391Z,98302.13
2022-11-21T11:01:33.649Z,98309.53
2022-11-21T11:04:41.692Z,98314.81
2022-11-21T11:07:26.472Z,98305.28
2022-11-21T11:10:15.602Z,98309.00
2022-11-21T11:13:04.995Z,98304.91
2022-11-21T11:15:39.601Z,98308.97
2022-11-21T11:18:14.591Z,98323.19
2022-11-21T11:20:45.090Z,98316.91
2022-11-21T11:23:26.916Z,98309.31
2022-11-21T11:25:59.992Z,98307.94
2022-11-21T11:28:36.516Z,98308.50
2022-11-21T11:31:04.386Z,98307.25
2022-11-21T11:33:41.238Z,98308.53
2022-11-21T11:36:28.001Z,98315.44
2022-11-21T11:38:59.291Z,98315.56
2022-11-21T11:42:27.956Z,98305.63
2022-11-21T11:45:43.689Z,98318.25
2022-11-21T11:48:11.598Z,98318.38
2022-11-21T11:50:50.990Z,98318.03
2022-11-21T11:53:27.581Z,98306.72
2022-11-21T11:56:13.518Z,98306.00
2022-11-21T11:59:04.069Z,98303.44
2022-11-21T12:01:33.992Z,98301.94
2022-11-21T12:04:16.164Z,98300.47
2022-11-21T12:10:58.183Z,98298.91
2022-11-21T12:13:27.958Z,98303.84
2022-11-21T12:16:05.902Z,98301.31
2022-11-21T12:18:56.088Z,98308.09
2022-11-21T12:21:24.093Z,98302.19
2022-11-21T12:23:56.252Z,98311.25
2022-11-21T12:26:48.738Z,98322.56
2022-11-21T12:29:42.329Z,98326.44
2022-11-21T12:32:33.203Z,98326.03
2022-11-21T12:35:16.927Z,98326.06
2022-11-21T12:38:01.989Z,98325.03
2022-11-21T12:41:30.313Z,98339.34
2022-11-21T12:44:40.019Z,98346.94
2022-11-21T12:47:57.705Z,98347.00
2022-11-21T12:50:55.279Z,98364.91
2022-11-21T12:53:58.210Z,98355.44
2022-11-21T12:57:04.996Z,98357.34
2022-11-21T12:59:58.337Z,98370.59
2022-11-21T13:03:05.603Z,98376.28
2022-11-21T13:05:41.010Z,98369.06
2022-11-21T13:08:24.168Z,98389.50
2022-11-21T13:11:53.949Z,98391.41
2022-11-21T13:20:32.268Z,98396.66
2022-11-21T13:23:06.696Z,98398.06
2022-11-21T13:25:41.046Z,98395.38
2022-11-21T13:28:14.365Z,98392.63
2022-11-21T13:30:51.937Z,98388.50
2022-11-21T13:33:37.786Z,98391.84
2022-11-21T13:36:30.173Z,98392.38
2022-11-21T13:38:57.626Z,98392.47
2022-11-21T13:41:55.214Z,98386.75
2022-11-21T13:44:31.764Z,98389.03
2022-11-21T13:47:10.977Z,98390.97
2022-11-21T13:50:10.042Z,98395.94
2022-11-21T13:53:00.458Z,98410.72
2022-11-21T13:55:58.550Z,98421.34
2022-11-21T13:58:48.050Z,98408.06
2022-11-21T14:01:51.819Z,98412.56
2022-11-21T14:04:58.273Z,98413.78
2022-11-21T14:07:32.354Z,98412.53
2022-11-21T14:10:06.539Z,98417.22
2022-11-21T14:12:44.580Z,98415.56
2022-11-21T14:15:31.148Z,98408.66
2022-11-21T14:18:01.228Z,98413.38
2022-11-21T14:21:00.657Z,98423.19
2022-11-21T14:23:34.970Z,98414.41
2022-11-21T14:26:05.158Z,98417.19
2022-11-21T14:28:35.381Z,98416.47
2022-11-21T14:31:07.960Z,98416.81
2022-11-21T14:33:37.956Z,98415.28
2022-11-21T14:36:13.572Z,98422.00
2022-11-21T14:39:36.003Z,98423.94
2022-11-21T14:42:02.405Z,98433.78
2022-11-21T14:44:30.067Z,98434.31
2022-11-21T14:47:25.225Z,98443.81
2022-11-21T14:49:59.655Z,98433.88
2022-11-21T14:52:33.500Z,98435.88
2022-11-21T14:55:29.161Z,98440.69
2022-11-21T14:57:56.596Z,98436.41
2022-11-21T15:03:23.344Z,98455.66
2022-11-21T15:06:06.444Z,98462.75
2022-11-21T15:11:39.117Z,98455.00
2022-11-21T15:14:22.254Z,98458.19
2022-11-21T15:16:53.953Z,98466.50
2022-11-21T15:19:30.023Z,98468.69
2022-11-21T15:22:02.764Z,98464.53
2022-11-21T15:24:32.158Z,98462.88
2022-11-21T15:27:00.959Z,98455.13
2022-11-21T15:29:31.082Z,98470.19
2022-11-21T15:32:16.743Z,98474.19
2022-11-21T15:34:44.814Z,98469.69
2022-11-21T15:37:18.171Z,98472.78
2022-11-21T15:39:52.250Z,98473.97
2022-11-21T15:42:37.460Z,98481.56
2022-11-21T15:45:20.259Z,98487.50
2022-11-21T15:47:49.468Z,98482.19
2022-11-21T15:50:18.218Z,98493.00
2022-11-21T15:52:51.284Z,98496.06
2022-11-21T15:55:29.186Z,98504.38
2022-11-21T15:57:56.797Z,98492.94
2022-11-21T16:00:25.421Z,98489.69
2022-11-21T16:02:53.372Z,98488.63
2022-11-21T16:05:20.960Z,98494.97
2022-11-21T16:07:48.784Z,98497.69
2022-11-21T16:10:22.703Z,98504.63
2022-11-21T16:12:54.767Z,98504.19
2022-11-21T16:15:22.678Z,98515.81
2022-11-21T16:17:51.131Z,98514.38
2022-11-21T16:20:18.695Z,98518.25
2022-11-21T16:22:47.978Z,98532.13
2022-11-21T16:25:16.490Z,98530.00
2022-11-21T16:27:43.973Z,98527.16
2022-11-21T16:30:12.722Z,98524.63
2022-11-21T16:32:43.026Z,98513.78
2022-11-21T16:35:10.610Z,98510.72
2022-11-21T16:37:38.113Z,98514.25
2022-11-21T16:40:06.628Z,98510.44
2022-11-21T16:42:34.130Z,98501.56
2022-11-21T16:45:02.991Z,98510.47
2022-11-21T16:47:30.574Z,98506.00
2022-11-21T16:50:00.973Z,98506.84
2022-11-21T16:52:28.490Z,98510.41
2022-11-21T16:54:56.042Z,98518.34
2022-11-21T16:57:23.621Z,98521.38
2022-11-21T16:59:51.177Z,98527.78
2022-11-21T17:02:21.215Z,98535.84
2022-11-21T17:04:50.469Z,98539.00
2022-11-21T17:07:18.069Z,98544.41
2022-11-21T17:09:46.653Z,98554.56
2022-11-21T17:12:14.175Z,98556.44
2022-11-21T17:14:41.657Z,98556.19
2022-11-21T17:17:09.152Z,98555.25
2022-11-21T17:19:38.943Z,98561.81
2022-11-21T17:22:06.746Z,98576.34
2022-11-21T17:24:34.487Z,98588.72
2022-11-21T17:27:02.751Z,98604.69
2022-11-21T17:29:31.423Z,98600.06
2022-11-21T17:31:59.002Z,98610.34
2022-11-21T17:34:32.516Z,98610.03
2022-11-21T17:37:03.279Z,98607.22
2022-11-21T17:39:31.551Z,98606.97
2022-11-21T17:42:02.271Z,98598.44
2022-11-21T17:44:31.689Z,98611.13
2022-11-21T17:47:01.985Z,98609.25
2022-11-21T17:49:37.042Z,98606.19
2022-11-21T17:52:08.373Z,98610.47
2022-11-21T17:54:36.665Z,98613.09
2022-11-21T17:57:07.300Z,98622.56
2022-11-21T17:59:38.751Z,98613.19
2022-11-21T18:02:08.278Z,98613.16
2022-11-21T18:04:38.998Z,98618.22
2022-11-21T18:07:07.501Z,98624.34
2022-11-21T18:09:35.112Z,98621.97
2022-11-21T18:12:02.640Z,98626.75
2022-11-21T18:14:31.521Z,98633.50
2022-11-21T18:17:00.529Z,98619.41
2022-11-21T18:19:28.700Z,98622.16
2022-11-21T18:21:57.308Z,98622.56
2022-11-21T18:24:25.387Z,98631.16
2022-11-21T18:26:54.347Z,98632.69
2022-11-21T18:29:40.240Z,98637.81
2022-11-21T18:32:08.108Z,98635.00
2022-11-21T18:34:35.734Z,98643.69
2022-11-21T18:37:03.609Z,98649.91
2022-11-21T18:39:32.894Z,98655.69
2022-11-21T18:42:01.641Z,98659.53
2022-11-21T18:44:30.681Z,98660.13
2022-11-21T18:47:08.510Z,98662.56
2022-11-21T18:49:43.992Z,98666.41
2022-11-21T18:52:11.765Z,98666.38
2022-11-21T18:54:41.216Z,98674.72
2022-11-21T18:57:08.914Z,98678.63
2022-11-21T18:59:36.652Z,98685.31
2022-11-21T19:02:04.482Z,98675.34
2022-11-21T19:04:35.194Z,98683.22
2022-11-21T19:07:03.333Z,98682.59
2022-11-21T19:09:32.670Z,98693.88
2022-11-21T19:12:00.741Z,98693.38
2022-11-21T19:14:52.290Z,98701.75
2022-11-21T19:17:20.771Z,98697.47
2022-11-21T19:19:48.768Z,98703.94
2022-11-21T19:22:16.556Z,98712.09
2022-11-21T19:24:44.135Z,98712.41
2022-11-21T19:27:11.880Z,98706.78
2022-11-21T19:29:39.539Z,98716.81
2022-11-21T19:32:07.249Z,98724.13
2022-11-21T19:34:36.119Z,98722.09
2022-11-21T19:37:04.876Z,98731.00
2022-11-21T19:39:33.270Z,98723.94
2022-11-21T19:42:03.637Z,98712.69
2022-11-21T19:44:31.242Z,98721.13
2022-11-21T19:46:58.859Z,98725.31
2022-11-21T19:49:26.895Z,98724.19
2022-11-21T19:51:55.266Z,98735.13
2022-11-21T19:54:25.381Z,98726.53
2022-11-21T19:56:53.594Z,98723.88
2022-11-21T19:59:22.013Z,98720.53
2022-11-21T20:01:52.824Z,98719.31
2022-11-21T20:04:21.008Z,98726.03
2022-11-21T20:06:50.304Z,98740.97
2022-11-21T20:09:22.054Z,98736.03
2022-11-21T20:11:53.545Z,98746.66
2022-11-21T20:14:22.610Z,98762.63
2022-11-21T20:16:54.094Z,98760.94
2022-11-21T20:19:25.863Z,98767.72
2022-11-21T20:21:56.487Z,98762.63
2022-11-21T20:24:26.924Z,98766.16
2022-11-21T20:26:54.896Z,98759.41
2022-11-21T20:29:22.624Z,98759.56
2022-11-21T20:31:50.219Z,98761.38
2022-11-21T20:34:18.025Z,98771.88
2022-11-21T20:36:46.938Z,98767.53
2022-11-21T20:39:17.923Z,98773.47
2022-11-21T20:41:47.192Z,98778.78
2022-11-21T20:47:09.521Z,98754.78
2022-11-21T20:49:46.249Z,98753.09
2022-11-21T20:55:05.906Z,98764.03
2022-11-21T20:57:33.571Z,98759.56
2022-11-21T21:00:02.311Z,98768.25
2022-11-21T21:02:29.796Z,98779.69
2022-11-21T21:04:57.291Z,98763.66
2022-11-21T21:07:26.044Z,98757.97
2022-11-21T21:09:53.613Z,98763.06
2022-11-21T21:12:21.332Z,98774.16
2022-11-21T21:14:50.154Z,98770.31
2022-11-21T21:17:18.060Z,98774.34
2022-11-21T21:19:46.944Z,98785.25
2022-11-21T21:22:14.659Z,98796.16
2022-11-21T21:24:42.147Z,98804.91
2022-11-21T21:27:10.248Z,98783.88
2022-11-21T21:29:39.237Z,98793.06
2022-11-21T21:32:07.234Z,98791.81
2022-11-21T21:34:34.725Z,98795.06
2022-11-21T21:37:02.237Z,98795.84
2022-11-21T21:39:30.487Z,98794.28
2022-11-21T21:41:59.497Z,98791.59
2022-11-21T21:44:33.250Z,98792.69
2022-11-21T21:47:02.485Z,98790.38
2022-11-21T21:49:31.211Z,98783.75
2022-11-21T21:51:59.194Z,98798.41
2022-11-21T21:54:26.823Z,98791.19
2022-11-21T21:56:54.629Z,98797.59
2022-11-21T21:59:22.204Z,98797.75
2022-11-21T22:01:49.685Z,98808.69
2022-11-21T22:04:17.232Z,98807.47
2022-11-21T22:06:44.734Z,98801.19
2022-11-21T22:09:12.258Z,98808.75
2022-11-21T22:11:39.928Z,98811.81
2022-11-21T22:14:17.800Z,98822.41
2022-11-21T22:16:45.338Z,98812.88
2022-11-21T22:19:12.884Z,98808.53
2022-11-21T22:21:43.563Z,98807.91
2022-11-21T22:24:29.984Z,98808.88
2022-11-21T22:26:57.631Z,98808.97
2022-11-21T22:29:25.884Z,98797.75
2022-11-21T22:31:54.332Z,98804.34
2022-11-21T22:34:22.360Z,98823.13
2022-11-21T22:36:50.419Z,98795.88
2022-11-21T22:39:18.140Z,98795.66
2022-11-21T22:42:06.789Z,98794.13
2022-11-21T22:44:34.311Z,98797.94
2022-11-21T22:47:01.744Z,98803.69
2022-11-21T22:49:29.257Z,98801.69
2022-11-21T22:51:57.343Z,98804.59
2022-11-21T22:54:24.910Z,98808.00
2022-11-21T22:56:52.359Z,98812.44
2022-11-21T22:59:19.885Z,98816.00
2022-11-21T23:01:47.327Z,98815.06
2022-11-21T23:04:17.822Z,98807.84
2022-11-21T23:06:45.648Z,98797.25
2022-11-21T23:09:13.286Z,98808.28
2022-11-21T23:11:41.241Z,98814.91
2022-11-21T23:14:09.056Z,98806.00
2022-11-21T23:16:37.218Z,98811.22
2022-11-21T23:19:08.083Z,98808.47
2022-11-21T23:21:35.669Z,98814.44
2022-11-21T23:24:03.216Z,98827.53
2022-11-21T23:26:30.672Z,98842.91
2022-11-21T23:29:01.236Z,98841.97
2022-11-21T23:31:31.477Z,98847.06
2022-11-21T23:33:59.555Z,98852.91
2022-11-21T23:36:26.968Z,98850.44
2022-11-21T23:38:54.453Z,98861.03
2022-11-21T23:41:21.890Z,98863.34
2022-11-21T23:43:49.379Z,98861.81
2022-11-21T23:46:16.823Z,98866.44
2022-11-21T23:48:44.293Z,98866.13
2022-11-21T23:51:11.846Z,98867.47
2022-11-21T23:53:39.255Z,98871.31
2022-11-21T23:56:06.805Z,98876.25
2022-11-21T23:58:34.509Z,98872.25
